sensor_id;sensor_type;location;lat;lon;timestamp;P1;durP1;ratioP1;P2;durP2;ratioP2
71423;SDS011;59240;51.370;-0.486;2022-07-24T00:02:24;5.57;;;2.60;;
71423;SDS011;59240;51.370;-0.486;2022-07-24T00:04:51;6.72;;;3.53;;
71423;SDS011;59240;51.370;-0.486;2022-07-24T00:07:23;6.47;;;3.13;;
71423;SDS011;59240;51.370;-0.486;2022-07-24T00:09:50;3.38;;;2.63;;
71423;SDS011;59240;51.370;-0.486;2022-07-24T00:12:17;6.43;;;2.90;;
71423;SDS011;59240;51.370;-0.486;2022-07-24T00:14:44;5.25;;;2.78;;
71423;SDS011;59240;51.370;-0.486;2022-07-24T00:17:11;4.03;;;2.72;;
71423;SDS011;59240;51.370;-0.486;2022-07-24T00:19:38;5.68;;;3.05;;
71423;SDS011;59240;51.370;-0.486;2022-07-24T00:22:04;6.60;;;3.17;;
71423;SDS011;59240;51.370;-0.486;2022-07-24T00:24:31;8.25;;;3.35;;
71423;SDS011;59240;51.370;-0.486;2022-07-24T00:26:58;6.13;;;2.97;;
71423;SDS011;59240;51.370;-0.486;2022-07-24T00:29:27;9.00;;;3.25;;
71423;SDS011;59240;51.370;-0.486;2022-07-24T00:31:54;5.82;;;3.20;;
71423;SDS011;59240;51.370;-0.486;2022-07-24T00:34:20;4.32;;;2.88;;
71423;SDS011;59240;51.370;-0.486;2022-07-24T00:36:47;5.32;;;3.30;;
71423;SDS011;59240;51.370;-0.486;2022-07-24T00:39:14;6.63;;;3.30;;
71423;SDS011;59240;51.370;-0.486;2022-07-24T00:41:40;6.00;;;2.72;;
71423;SDS011;59240;51.370;-0.486;2022-07-24T00:44:08;5.40;;;3.00;;
71423;SDS011;59240;51.370;-0.486;2022-07-24T00:46:40;3.92;;;2.90;;
71423;SDS011;59240;51.370;-0.486;2022-07-24T00:49:09;6.50;;;3.00;;
71423;SDS011;59240;51.370;-0.486;2022-07-24T00:51:44;5.63;;;3.20;;
71423;SDS011;59240;51.370;-0.486;2022-07-24T00:54:13;4.72;;;3.20;;
71423;SDS011;59240;51.370;-0.486;2022-07-24T00:56:41;7.63;;;3.58;;
71423;SDS011;59240;51.370;-0.486;2022-07-24T00:59:10;4.40;;;3.20;;
71423;SDS011;59240;51.370;-0.486;2022-07-24T01:01:37;7.50;;;3.50;;
71423;SDS011;59240;51.370;-0.486;2022-07-24T01:04:06;6.55;;;3.38;;
71423;SDS011;59240;51.370;-0.486;2022-07-24T01:06:34;5.50;;;3.50;;
71423;SDS011;59240;51.370;-0.486;2022-07-24T01:09:01;5.95;;;3.75;;
71423;SDS011;59240;51.370;-0.486;2022-07-24T01:11:29;6.68;;;3.67;;
71423;SDS011;59240;51.370;-0.486;2022-07-24T01:13:56;7.38;;;3.42;;
71423;SDS011;59240;51.370;-0.486;2022-07-24T01:16:23;7.90;;;3.90;;
71423;SDS011;59240;51.370;-0.486;2022-07-24T01:18:50;5.47;;;4.05;;
71423;SDS011;59240;51.370;-0.486;2022-07-24T01:21:17;9.63;;;4.18;;
71423;SDS011;59240;51.370;-0.486;2022-07-24T01:23:44;7.65;;;4.57;;
71423;SDS011;59240;51.370;-0.486;2022-07-24T01:26:11;7.82;;;4.10;;
71423;SDS011;59240;51.370;-0.486;2022-07-24T01:28:38;6.88;;;4.03;;
71423;SDS011;59240;51.370;-0.486;2022-07-24T01:31:05;6.00;;;4.18;;
71423;SDS011;59240;51.370;-0.486;2022-07-24T01:33:32;7.05;;;4.03;;
71423;SDS011;59240;51.370;-0.486;2022-07-24T01:35:58;5.50;;;4.32;;
71423;SDS011;59240;51.370;-0.486;2022-07-24T01:38:25;7.05;;;4.43;;
71423;SDS011;59240;51.370;-0.486;2022-07-24T01:40:52;6.63;;;4.00;;
71423;SDS011;59240;51.370;-0.486;2022-07-24T01:43:18;8.20;;;3.92;;
71423;SDS011;59240;51.370;-0.486;2022-07-24T01:45:45;9.20;;;4.32;;
71423;SDS011;59240;51.370;-0.486;2022-07-24T01:48:12;8.75;;;4.20;;
71423;SDS011;59240;51.370;-0.486;2022-07-24T01:50:39;6.80;;;4.25;;
71423;SDS011;59240;51.370;-0.486;2022-07-24T01:53:05;5.32;;;3.40;;
71423;SDS011;59240;51.370;-0.486;2022-07-24T01:55:33;9.18;;;4.20;;
71423;SDS011;59240;51.370;-0.486;2022-07-24T01:57:59;7.30;;;4.10;;
71423;SDS011;59240;51.370;-0.486;2022-07-24T02:00:27;7.43;;;4.03;;
71423;SDS011;59240;51.370;-0.486;2022-07-24T02:02:54;7.93;;;4.93;;
71423;SDS011;59240;51.370;-0.486;2022-07-24T02:05:20;7.40;;;4.50;;
71423;SDS011;59240;51.370;-0.486;2022-07-24T02:07:53;7.15;;;4.63;;
71423;SDS011;59240;51.370;-0.486;2022-07-24T02:10:24;8.30;;;5.07;;
71423;SDS011;59240;51.370;-0.486;2022-07-24T02:12:52;7.40;;;4.70;;
71423;SDS011;59240;51.370;-0.486;2022-07-24T02:15:19;8.90;;;4.70;;
71423;SDS011;59240;51.370;-0.486;2022-07-24T02:17:46;7.20;;;4.43;;
71423;SDS011;59240;51.370;-0.486;2022-07-24T02:20:17;9.80;;;4.78;;
71423;SDS011;59240;51.370;-0.486;2022-07-24T02:22:44;8.52;;;5.50;;
71423;SDS011;59240;51.370;-0.486;2022-07-24T02:25:11;7.22;;;4.82;;
71423;SDS011;59240;51.370;-0.486;2022-07-24T02:27:39;11.63;;;4.53;;
71423;SDS011;59240;51.370;-0.486;2022-07-24T02:30:07;9.82;;;4.88;;
71423;SDS011;59240;51.370;-0.486;2022-07-24T02:32:36;8.90;;;5.10;;
71423;SDS011;59240;51.370;-0.486;2022-07-24T02:35:03;6.82;;;5.13;;
71423;SDS011;59240;51.370;-0.486;2022-07-24T02:37:34;11.85;;;4.90;;
71423;SDS011;59240;51.370;-0.486;2022-07-24T02:40:03;8.25;;;5.70;;
71423;SDS011;59240;51.370;-0.486;2022-07-24T02:42:31;8.60;;;5.00;;
71423;SDS011;59240;51.370;-0.486;2022-07-24T02:44:58;10.23;;;5.20;;
71423;SDS011;59240;51.370;-0.486;2022-07-24T02:47:24;8.45;;;5.15;;
71423;SDS011;59240;51.370;-0.486;2022-07-24T02:49:51;6.53;;;4.68;;
71423;SDS011;59240;51.370;-0.486;2022-07-24T02:52:18;9.95;;;4.68;;
71423;SDS011;59240;51.370;-0.486;2022-07-24T02:54:45;10.30;;;4.95;;
71423;SDS011;59240;51.370;-0.486;2022-07-24T02:57:11;8.25;;;4.60;;
71423;SDS011;59240;51.370;-0.486;2022-07-24T02:59:38;12.45;;;4.85;;
71423;SDS011;59240;51.370;-0.486;2022-07-24T03:02:04;6.80;;;4.30;;
71423;SDS011;59240;51.370;-0.486;2022-07-24T03:04:32;10.82;;;4.85;;
71423;SDS011;59240;51.370;-0.486;2022-07-24T03:06:58;7.43;;;4.10;;
71423;SDS011;59240;51.370;-0.486;2022-07-24T03:09:25;5.93;;;3.85;;
71423;SDS011;59240;51.370;-0.486;2022-07-24T03:11:52;6.93;;;3.90;;
71423;SDS011;59240;51.370;-0.486;2022-07-24T03:14:18;7.03;;;3.85;;
71423;SDS011;59240;51.370;-0.486;2022-07-24T03:16:45;7.47;;;4.55;;
71423;SDS011;59240;51.370;-0.486;2022-07-24T03:19:12;5.78;;;3.80;;
71423;SDS011;59240;51.370;-0.486;2022-07-24T03:21:39;7.93;;;3.80;;
71423;SDS011;59240;51.370;-0.486;2022-07-24T03:24:14;10.70;;;4.30;;
71423;SDS011;59240;51.370;-0.486;2022-07-24T03:26:41;7.45;;;3.90;;
71423;SDS011;59240;51.370;-0.486;2022-07-24T03:29:07;4.15;;;3.35;;
71423;SDS011;59240;51.370;-0.486;2022-07-24T03:31:34;7.20;;;3.95;;
71423;SDS011;59240;51.370;-0.486;2022-07-24T03:34:01;6.07;;;3.42;;
71423;SDS011;59240;51.370;-0.486;2022-07-24T03:36:28;6.80;;;3.53;;
71423;SDS011;59240;51.370;-0.486;2022-07-24T03:38:55;6.90;;;3.20;;
71423;SDS011;59240;51.370;-0.486;2022-07-24T03:41:21;7.32;;;3.20;;
71423;SDS011;59240;51.370;-0.486;2022-07-24T03:43:49;7.22;;;3.55;;
71423;SDS011;59240;51.370;-0.486;2022-07-24T03:46:16;9.85;;;3.50;;
71423;SDS011;59240;51.370;-0.486;2022-07-24T03:48:43;6.30;;;3.70;;
71423;SDS011;59240;51.370;-0.486;2022-07-24T03:51:09;6.43;;;3.40;;
71423;SDS011;59240;51.370;-0.486;2022-07-24T03:53:37;4.32;;;3.40;;
71423;SDS011;59240;51.370;-0.486;2022-07-24T03:56:07;5.78;;;3.08;;
71423;SDS011;59240;51.370;-0.486;2022-07-24T03:58:35;8.20;;;3.47;;
71423;SDS011;59240;51.370;-0.486;2022-07-24T04:01:05;9.52;;;3.17;;
71423;SDS011;59240;51.370;-0.486;2022-07-24T04:03:32;6.13;;;3.42;;
71423;SDS011;59240;51.370;-0.486;2022-07-24T04:06:05;4.30;;;2.60;;
71423;SDS011;59240;51.370;-0.486;2022-07-24T04:08:32;8.73;;;2.95;;
71423;SDS011;59240;51.370;-0.486;2022-07-24T04:10:59;5.65;;;3.13;;
71423;SDS011;59240;51.370;-0.486;2022-07-24T04:13:30;8.45;;;3.30;;
71423;SDS011;59240;51.370;-0.486;2022-07-24T04:15:57;4.75;;;3.03;;
71423;SDS011;59240;51.370;-0.486;2022-07-24T04:18:24;6.18;;;3.05;;
71423;SDS011;59240;51.370;-0.486;2022-07-24T04:20:52;8.00;;;2.92;;
71423;SDS011;59240;51.370;-0.486;2022-07-24T04:23:18;5.78;;;2.70;;
71423;SDS011;59240;51.370;-0.486;2022-07-24T04:25:45;8.88;;;3.22;;
71423;SDS011;59240;51.370;-0.486;2022-07-24T04:28:13;6.00;;;3.20;;
71423;SDS011;59240;51.370;-0.486;2022-07-24T04:30:40;6.20;;;2.88;;
71423;SDS011;59240;51.370;-0.486;2022-07-24T04:33:07;5.32;;;2.88;;
71423;SDS011;59240;51.370;-0.486;2022-07-24T04:35:33;8.52;;;2.83;;
71423;SDS011;59240;51.370;-0.486;2022-07-24T04:38:00;6.68;;;2.88;;
71423;SDS011;59240;51.370;-0.486;2022-07-24T04:40:27;4.90;;;2.60;;
71423;SDS011;59240;51.370;-0.486;2022-07-24T04:42:53;6.25;;;2.45;;
71423;SDS011;59240;51.370;-0.486;2022-07-24T04:45:20;5.40;;;2.95;;
71423;SDS011;59240;51.370;-0.486;2022-07-24T04:47:47;8.57;;;2.97;;
71423;SDS011;59240;51.370;-0.486;2022-07-24T04:50:14;6.10;;;2.50;;
71423;SDS011;59240;51.370;-0.486;2022-07-24T04:52:41;5.25;;;2.65;;
71423;SDS011;59240;51.370;-0.486;2022-07-24T04:55:07;6.15;;;2.65;;
71423;SDS011;59240;51.370;-0.486;2022-07-24T04:57:35;6.47;;;2.67;;
71423;SDS011;59240;51.370;-0.486;2022-07-24T05:00:03;4.72;;;2.72;;
71423;SDS011;59240;51.370;-0.486;2022-07-24T05:02:31;5.65;;;2.90;;
71423;SDS011;59240;51.370;-0.486;2022-07-24T05:04:58;5.88;;;2.70;;
71423;SDS011;59240;51.370;-0.486;2022-07-24T05:07:25;5.82;;;2.60;;
71423;SDS011;59240;51.370;-0.486;2022-07-24T05:09:51;5.53;;;2.55;;
71423;SDS011;59240;51.370;-0.486;2022-07-24T05:12:18;5.18;;;2.78;;
71423;SDS011;59240;51.370;-0.486;2022-07-24T05:14:45;7.90;;;2.42;;
71423;SDS011;59240;51.370;-0.486;2022-07-24T05:17:11;5.32;;;2.40;;
71423;SDS011;59240;51.370;-0.486;2022-07-24T05:19:38;6.15;;;2.75;;
71423;SDS011;59240;51.370;-0.486;2022-07-24T05:22:05;6.18;;;2.50;;
71423;SDS011;59240;51.370;-0.486;2022-07-24T05:24:32;4.35;;;2.72;;
71423;SDS011;59240;51.370;-0.486;2022-07-24T05:26:59;5.20;;;2.40;;
71423;SDS011;59240;51.370;-0.486;2022-07-24T05:29:25;8.38;;;2.20;;
71423;SDS011;59240;51.370;-0.486;2022-07-24T05:31:52;4.28;;;2.03;;
71423;SDS011;59240;51.370;-0.486;2022-07-24T05:34:21;3.88;;;2.15;;
71423;SDS011;59240;51.370;-0.486;2022-07-24T05:36:49;6.47;;;2.63;;
71423;SDS011;59240;51.370;-0.486;2022-07-24T05:39:16;5.60;;;2.65;;
71423;SDS011;59240;51.370;-0.486;2022-07-24T05:41:43;5.75;;;2.10;;
71423;SDS011;59240;51.370;-0.486;2022-07-24T05:44:09;4.82;;;2.10;;
71423;SDS011;59240;51.370;-0.486;2022-07-24T05:46:36;5.35;;;2.20;;
71423;SDS011;59240;51.370;-0.486;2022-07-24T05:49:03;7.90;;;2.25;;
71423;SDS011;59240;51.370;-0.486;2022-07-24T05:51:30;3.83;;;2.17;;
71423;SDS011;59240;51.370;-0.486;2022-07-24T05:53:57;6.15;;;2.10;;
71423;SDS011;59240;51.370;-0.486;2022-07-24T05:56:24;5.00;;;1.85;;
71423;SDS011;59240;51.370;-0.486;2022-07-24T05:58:50;3.10;;;1.90;;
71423;SDS011;59240;51.370;-0.486;2022-07-24T06:01:17;4.82;;;2.00;;
71423;SDS011;59240;51.370;-0.486;2022-07-24T06:03:44;3.88;;;2.00;;
71423;SDS011;59240;51.370;-0.486;2022-07-24T06:06:12;3.67;;;1.88;;
71423;SDS011;59240;51.370;-0.486;2022-07-24T06:08:38;2.95;;;1.80;;
71423;SDS011;59240;51.370;-0.486;2022-07-24T06:11:05;4.00;;;2.33;;
71423;SDS011;59240;51.370;-0.486;2022-07-24T06:13:32;6.15;;;2.35;;
71423;SDS011;59240;51.370;-0.486;2022-07-24T06:15:59;5.20;;;2.35;;
71423;SDS011;59240;51.370;-0.486;2022-07-24T06:18:26;4.32;;;1.95;;
71423;SDS011;59240;51.370;-0.486;2022-07-24T06:20:53;6.07;;;2.25;;
71423;SDS011;59240;51.370;-0.486;2022-07-24T06:23:20;4.93;;;2.05;;
71423;SDS011;59240;51.370;-0.486;2022-07-24T06:25:48;9.40;;;1.98;;
71423;SDS011;59240;51.370;-0.486;2022-07-24T06:28:14;6.10;;;2.10;;
71423;SDS011;59240;51.370;-0.486;2022-07-24T06:30:41;4.40;;;2.00;;
71423;SDS011;59240;51.370;-0.486;2022-07-24T06:33:08;4.95;;;2.25;;
71423;SDS011;59240;51.370;-0.486;2022-07-24T06:35:35;5.57;;;2.33;;
71423;SDS011;59240;51.370;-0.486;2022-07-24T06:38:01;5.20;;;2.20;;
71423;SDS011;59240;51.370;-0.486;2022-07-24T06:40:28;5.22;;;2.00;;
71423;SDS011;59240;51.370;-0.486;2022-07-24T06:42:55;4.63;;;1.90;;
71423;SDS011;59240;51.370;-0.486;2022-07-24T06:45:22;4.75;;;2.05;;
71423;SDS011;59240;51.370;-0.486;2022-07-24T06:47:49;3.10;;;1.88;;
71423;SDS011;59240;51.370;-0.486;2022-07-24T06:50:16;3.25;;;1.90;;
71423;SDS011;59240;51.370;-0.486;2022-07-24T06:52:43;5.65;;;2.20;;
71423;SDS011;59240;51.370;-0.486;2022-07-24T06:55:11;3.38;;;2.00;;
71423;SDS011;59240;51.370;-0.486;2022-07-24T06:57:38;5.32;;;2.25;;
71423;SDS011;59240;51.370;-0.486;2022-07-24T07:00:09;3.10;;;2.10;;
71423;SDS011;59240;51.370;-0.486;2022-07-24T07:02:37;3.78;;;2.15;;
71423;SDS011;59240;51.370;-0.486;2022-07-24T07:05:05;2.33;;;1.65;;
71423;SDS011;59240;51.370;-0.486;2022-07-24T07:07:33;3.10;;;1.98;;
71423;SDS011;59240;51.370;-0.486;2022-07-24T07:10:02;6.18;;;2.00;;
71423;SDS011;59240;51.370;-0.486;2022-07-24T07:12:29;2.95;;;1.65;;
71423;SDS011;59240;51.370;-0.486;2022-07-24T07:15:00;2.65;;;1.67;;
71423;SDS011;59240;51.370;-0.486;2022-07-24T07:17:26;3.20;;;1.95;;
71423;SDS011;59240;51.370;-0.486;2022-07-24T07:19:53;3.65;;;1.77;;
71423;SDS011;59240;51.370;-0.486;2022-07-24T07:22:20;2.42;;;1.90;;
71423;SDS011;59240;51.370;-0.486;2022-07-24T07:24:47;4.13;;;2.10;;
71423;SDS011;59240;51.370;-0.486;2022-07-24T07:27:13;3.78;;;1.80;;
71423;SDS011;59240;51.370;-0.486;2022-07-24T07:29:40;4.80;;;2.10;;
71423;SDS011;59240;51.370;-0.486;2022-07-24T07:32:07;6.78;;;2.03;;
71423;SDS011;59240;51.370;-0.486;2022-07-24T07:34:33;4.35;;;1.90;;
71423;SDS011;59240;51.370;-0.486;2022-07-24T07:37:00;4.75;;;1.88;;
71423;SDS011;59240;51.370;-0.486;2022-07-24T07:39:27;2.92;;;1.67;;
71423;SDS011;59240;51.370;-0.486;2022-07-24T07:41:53;3.30;;;1.80;;
71423;SDS011;59240;51.370;-0.486;2022-07-24T07:44:20;3.40;;;1.70;;
71423;SDS011;59240;51.370;-0.486;2022-07-24T07:46:46;3.47;;;1.70;;
71423;SDS011;59240;51.370;-0.486;2022-07-24T07:49:13;2.75;;;1.70;;
71423;SDS011;59240;51.370;-0.486;2022-07-24T07:51:41;3.42;;;1.85;;
71423;SDS011;59240;51.370;-0.486;2022-07-24T07:54:09;4.40;;;1.80;;
71423;SDS011;59240;51.370;-0.486;2022-07-24T07:56:35;3.13;;;1.75;;
71423;SDS011;59240;51.370;-0.486;2022-07-24T07:59:02;2.47;;;1.50;;
71423;SDS011;59240;51.370;-0.486;2022-07-24T08:01:29;2.28;;;1.70;;
71423;SDS011;59240;51.370;-0.486;2022-07-24T08:03:56;3.45;;;1.63;;
71423;SDS011;59240;51.370;-0.486;2022-07-24T08:06:22;3.72;;;1.80;;
71423;SDS011;59240;51.370;-0.486;2022-07-24T08:08:51;3.28;;;1.70;;
71423;SDS011;59240;51.370;-0.486;2022-07-24T08:11:17;2.50;;;1.60;;
71423;SDS011;59240;51.370;-0.486;2022-07-24T08:13:44;3.17;;;1.80;;
71423;SDS011;59240;51.370;-0.486;2022-07-24T08:16:11;3.38;;;2.00;;
71423;SDS011;59240;51.370;-0.486;2022-07-24T08:18:38;2.13;;;1.90;;
71423;SDS011;59240;51.370;-0.486;2022-07-24T08:21:06;3.95;;;1.90;;
71423;SDS011;59240;51.370;-0.486;2022-07-24T08:23:32;4.10;;;1.90;;
71423;SDS011;59240;51.370;-0.486;2022-07-24T08:25:59;2.92;;;2.00;;
71423;SDS011;59240;51.370;-0.486;2022-07-24T08:28:25;3.13;;;1.85;;
71423;SDS011;59240;51.370;-0.486;2022-07-24T08:30:52;4.05;;;1.88;;
71423;SDS011;59240;51.370;-0.486;2022-07-24T08:33:19;3.53;;;1.70;;
71423;SDS011;59240;51.370;-0.486;2022-07-24T08:35:45;2.97;;;1.65;;
71423;SDS011;59240;51.370;-0.486;2022-07-24T08:38:12;2.88;;;1.80;;
71423;SDS011;59240;51.370;-0.486;2022-07-24T08:40:39;1.52;;;1.42;;
71423;SDS011;59240;51.370;-0.486;2022-07-24T08:43:07;3.63;;;1.80;;
71423;SDS011;59240;51.370;-0.486;2022-07-24T08:45:39;1.85;;;1.60;;
71423;SDS011;59240;51.370;-0.486;2022-07-24T08:48:08;2.85;;;1.73;;
71423;SDS011;59240;51.370;-0.486;2022-07-24T08:50:37;4.57;;;1.70;;
71423;SDS011;59240;51.370;-0.486;2022-07-24T08:53:06;4.13;;;1.80;;
71423;SDS011;59240;51.370;-0.486;2022-07-24T08:55:33;3.28;;;1.90;;
71423;SDS011;59240;51.370;-0.486;2022-07-24T08:58:01;3.70;;;1.77;;
71423;SDS011;59240;51.370;-0.486;2022-07-24T09:00:28;2.83;;;1.80;;
71423;SDS011;59240;51.370;-0.486;2022-07-24T09:02:56;3.05;;;1.67;;
71423;SDS011;59240;51.370;-0.486;2022-07-24T09:05:23;2.72;;;1.60;;
71423;SDS011;59240;51.370;-0.486;2022-07-24T09:07:52;3.47;;;1.77;;
71423;SDS011;59240;51.370;-0.486;2022-07-24T09:10:35;3.28;;;1.77;;
71423;SDS011;59240;51.370;-0.486;2022-07-24T09:13:15;3.58;;;1.83;;
71423;SDS011;59240;51.370;-0.486;2022-07-24T09:15:43;2.08;;;1.63;;
71423;SDS011;59240;51.370;-0.486;2022-07-24T09:18:29;3.65;;;2.13;;
71423;SDS011;59240;51.370;-0.486;2022-07-24T09:21:11;2.65;;;1.70;;
71423;SDS011;59240;51.370;-0.486;2022-07-24T09:23:39;3.55;;;1.50;;
71423;SDS011;59240;51.370;-0.486;2022-07-24T09:26:07;5.68;;;1.70;;
71423;SDS011;59240;51.370;-0.486;2022-07-24T09:28:50;2.95;;;1.77;;
71423;SDS011;59240;51.370;-0.486;2022-07-24T09:31:21;3.20;;;1.80;;
71423;SDS011;59240;51.370;-0.486;2022-07-24T09:33:49;1.77;;;1.50;;
71423;SDS011;59240;51.370;-0.486;2022-07-24T09:36:16;2.35;;;1.52;;
71423;SDS011;59240;51.370;-0.486;2022-07-24T09:38:48;1.95;;;1.60;;
71423;SDS011;59240;51.370;-0.486;2022-07-24T09:41:22;2.55;;;1.65;;
71423;SDS011;59240;51.370;-0.486;2022-07-24T09:43:57;3.10;;;1.83;;
71423;SDS011;59240;51.370;-0.486;2022-07-24T09:46:26;3.38;;;1.73;;
71423;SDS011;59240;51.370;-0.486;2022-07-24T09:48:57;1.58;;;1.48;;
71423;SDS011;59240;51.370;-0.486;2022-07-24T09:51:26;4.55;;;1.73;;
71423;SDS011;59240;51.370;-0.486;2022-07-24T09:53:55;1.90;;;1.73;;
71423;SDS011;59240;51.370;-0.486;2022-07-24T09:56:23;1.98;;;1.70;;
71423;SDS011;59240;51.370;-0.486;2022-07-24T09:58:52;5.20;;;1.40;;
71423;SDS011;59240;51.370;-0.486;2022-07-24T10:01:21;3.00;;;1.60;;
71423;SDS011;59240;51.370;-0.486;2022-07-24T10:03:51;3.53;;;1.55;;
71423;SDS011;59240;51.370;-0.486;2022-07-24T10:06:19;2.22;;;1.40;;
71423;SDS011;59240;51.370;-0.486;2022-07-24T10:08:48;2.30;;;1.60;;
71423;SDS011;59240;51.370;-0.486;2022-07-24T10:11:16;1.85;;;1.60;;
71423;SDS011;59240;51.370;-0.486;2022-07-24T10:13:45;2.60;;;1.70;;
71423;SDS011;59240;51.370;-0.486;2022-07-24T10:18:49;1.98;;;1.45;;
71423;SDS011;59240;51.370;-0.486;2022-07-24T10:26:34;2.67;;;1.58;;
71423;SDS011;59240;51.370;-0.486;2022-07-24T10:29:05;1.50;;;1.40;;
71423;SDS011;59240;51.370;-0.486;2022-07-24T10:31:37;3.53;;;1.40;;
71423;SDS011;59240;51.370;-0.486;2022-07-24T10:34:08;2.67;;;1.73;;
71423;SDS011;59240;51.370;-0.486;2022-07-24T10:39:50;1.85;;;1.58;;
71423;SDS011;59240;51.370;-0.486;2022-07-24T10:42:25;3.63;;;1.80;;
71423;SDS011;59240;51.370;-0.486;2022-07-24T10:47:40;2.47;;;1.55;;
71423;SDS011;59240;51.370;-0.486;2022-07-24T10:50:07;2.80;;;1.80;;
71423;SDS011;59240;51.370;-0.486;2022-07-24T10:52:35;2.22;;;1.92;;
71423;SDS011;59240;51.370;-0.486;2022-07-24T10:58:14;5.00;;;1.70;;
71423;SDS011;59240;51.370;-0.486;2022-07-24T11:00:49;2.80;;;1.73;;
71423;SDS011;59240;51.370;-0.486;2022-07-24T11:03:21;2.95;;;1.90;;
71423;SDS011;59240;51.370;-0.486;2022-07-24T11:08:32;2.40;;;1.52;;
71423;SDS011;59240;51.370;-0.486;2022-07-24T11:11:07;3.35;;;2.00;;
71423;SDS011;59240;51.370;-0.486;2022-07-24T11:18:42;2.70;;;1.70;;
71423;SDS011;59240;51.370;-0.486;2022-07-24T11:26:50;2.72;;;1.73;;
71423;SDS011;59240;51.370;-0.486;2022-07-24T11:29:19;3.70;;;1.77;;
71423;SDS011;59240;51.370;-0.486;2022-07-24T11:31:55;1.88;;;1.70;;
71423;SDS011;59240;51.370;-0.486;2022-07-24T11:34:23;2.80;;;1.90;;
71423;SDS011;59240;51.370;-0.486;2022-07-24T11:36:52;2.58;;;1.60;;
71423;SDS011;59240;51.370;-0.486;2022-07-24T11:39:25;2.60;;;1.65;;
71423;SDS011;59240;51.370;-0.486;2022-07-24T11:42:03;3.95;;;1.70;;
71423;SDS011;59240;51.370;-0.486;2022-07-24T11:44:36;2.92;;;1.70;;
71423;SDS011;59240;51.370;-0.486;2022-07-24T11:47:10;2.97;;;1.80;;
71423;SDS011;59240;51.370;-0.486;2022-07-24T11:52:06;2.85;;;1.80;;
71423;SDS011;59240;51.370;-0.486;2022-07-24T11:54:33;2.65;;;1.75;;
71423;SDS011;59240;51.370;-0.486;2022-07-24T11:57:00;1.98;;;1.48;;
71423;SDS011;59240;51.370;-0.486;2022-07-24T11:59:27;2.55;;;1.80;;
71423;SDS011;59240;51.370;-0.486;2022-07-24T12:01:56;3.30;;;1.67;;
71423;SDS011;59240;51.370;-0.486;2022-07-24T12:04:34;3.05;;;1.90;;
71423;SDS011;59240;51.370;-0.486;2022-07-24T12:07:01;4.43;;;2.22;;
71423;SDS011;59240;51.370;-0.486;2022-07-24T12:09:32;5.75;;;1.75;;
71423;SDS011;59240;51.370;-0.486;2022-07-24T12:11:59;3.20;;;1.65;;
71423;SDS011;59240;51.370;-0.486;2022-07-24T12:14:25;3.17;;;1.60;;
71423;SDS011;59240;51.370;-0.486;2022-07-24T12:16:53;5.93;;;1.92;;
71423;SDS011;59240;51.370;-0.486;2022-07-24T12:19:22;3.30;;;2.00;;
71423;SDS011;59240;51.370;-0.486;2022-07-24T12:21:52;1.90;;;1.52;;
71423;SDS011;59240;51.370;-0.486;2022-07-24T12:24:20;2.83;;;1.90;;
71423;SDS011;59240;51.370;-0.486;2022-07-24T12:26:57;3.28;;;1.98;;
71423;SDS011;59240;51.370;-0.486;2022-07-24T12:29:26;2.53;;;1.50;;
71423;SDS011;59240;51.370;-0.486;2022-07-24T12:32:13;2.50;;;1.77;;
71423;SDS011;59240;51.370;-0.486;2022-07-24T12:34:47;2.75;;;1.95;;
71423;SDS011;59240;51.370;-0.486;2022-07-24T12:37:34;3.58;;;2.05;;
71423;SDS011;59240;51.370;-0.486;2022-07-24T12:40:03;3.30;;;1.90;;
71423;SDS011;59240;51.370;-0.486;2022-07-24T12:42:31;3.55;;;1.80;;
71423;SDS011;59240;51.370;-0.486;2022-07-24T12:45:07;3.75;;;2.10;;
71423;SDS011;59240;51.370;-0.486;2022-07-24T12:48:21;4.03;;;2.03;;
71423;SDS011;59240;51.370;-0.486;2022-07-24T12:50:36;4.43;;;2.25;;
71423;SDS011;59240;51.370;-0.486;2022-07-24T12:53:22;2.10;;;1.90;;
71423;SDS011;59240;51.370;-0.486;2022-07-24T12:56:02;5.47;;;3.00;;
71423;SDS011;59240;51.370;-0.486;2022-07-24T12:58:29;4.13;;;3.17;;
71423;SDS011;59240;51.370;-0.486;2022-07-24T13:01:12;7.85;;;4.65;;
71423;SDS011;59240;51.370;-0.486;2022-07-24T13:03:49;8.68;;;7.10;;
71423;SDS011;59240;51.370;-0.486;2022-07-24T13:06:32;14.68;;;8.65;;
71423;SDS011;59240;51.370;-0.486;2022-07-24T13:09:05;14.88;;;10.43;;
71423;SDS011;59240;51.370;-0.486;2022-07-24T13:11:35;8.43;;;4.45;;
71423;SDS011;59240;51.370;-0.486;2022-07-24T13:14:03;9.32;;;6.18;;
71423;SDS011;59240;51.370;-0.486;2022-07-24T13:16:36;15.75;;;12.35;;
71423;SDS011;59240;51.370;-0.486;2022-07-24T13:19:05;11.98;;;10.63;;
71423;SDS011;59240;51.370;-0.486;2022-07-24T13:21:33;12.13;;;9.40;;
71423;SDS011;59240;51.370;-0.486;2022-07-24T13:24:00;23.33;;;17.70;;
71423;SDS011;59240;51.370;-0.486;2022-07-24T13:26:27;37.40;;;33.35;;
71423;SDS011;59240;51.370;-0.486;2022-07-24T13:28:54;63.08;;;56.90;;
71423;SDS011;59240;51.370;-0.486;2022-07-24T13:31:20;54.88;;;48.70;;
71423;SDS011;59240;51.370;-0.486;2022-07-24T13:33:48;37.53;;;33.47;;
71423;SDS011;59240;51.370;-0.486;2022-07-24T13:36:16;68.85;;;61.53;;
71423;SDS011;59240;51.370;-0.486;2022-07-24T13:38:44;138.63;;;124.97;;
71423;SDS011;59240;51.370;-0.486;2022-07-24T13:41:12;201.55;;;180.70;;
71423;SDS011;59240;51.370;-0.486;2022-07-24T13:43:39;79.53;;;71.43;;
71423;SDS011;59240;51.370;-0.486;2022-07-24T13:46:06;40.33;;;36.13;;
71423;SDS011;59240;51.370;-0.486;2022-07-24T13:48:33;20.05;;;16.73;;
71423;SDS011;59240;51.370;-0.486;2022-07-24T13:50:59;75.93;;;67.72;;
71423;SDS011;59240;51.370;-0.486;2022-07-24T13:53:26;86.97;;;77.68;;
71423;SDS011;59240;51.370;-0.486;2022-07-24T13:55:53;83.95;;;72.10;;
71423;SDS011;59240;51.370;-0.486;2022-07-24T13:58:19;87.93;;;78.40;;
71423;SDS011;59240;51.370;-0.486;2022-07-24T14:00:46;101.82;;;87.30;;
71423;SDS011;59240;51.370;-0.486;2022-07-24T14:03:13;115.80;;;103.15;;
71423;SDS011;59240;51.370;-0.486;2022-07-24T14:06:00;126.20;;;112.88;;
71423;SDS011;59240;51.370;-0.486;2022-07-24T14:08:27;89.30;;;78.43;;
71423;SDS011;59240;51.370;-0.486;2022-07-24T14:10:54;126.30;;;112.60;;
71423;SDS011;59240;51.370;-0.486;2022-07-24T14:13:21;110.32;;;97.25;;
71423;SDS011;59240;51.370;-0.486;2022-07-24T14:15:48;79.05;;;68.43;;
71423;SDS011;59240;51.370;-0.486;2022-07-24T14:18:15;107.80;;;95.97;;
71423;SDS011;59240;51.370;-0.486;2022-07-24T14:20:41;41.33;;;36.90;;
71423;SDS011;59240;51.370;-0.486;2022-07-24T14:23:09;19.17;;;13.45;;
71423;SDS011;59240;51.370;-0.486;2022-07-24T14:25:35;21.23;;;14.70;;
71423;SDS011;59240;51.370;-0.486;2022-07-24T14:28:02;23.17;;;15.32;;
71423;SDS011;59240;51.370;-0.486;2022-07-24T14:30:29;20.58;;;14.85;;
71423;SDS011;59240;51.370;-0.486;2022-07-24T14:32:55;29.73;;;25.77;;
71423;SDS011;59240;51.370;-0.486;2022-07-24T14:35:22;47.72;;;42.70;;
71423;SDS011;59240;51.370;-0.486;2022-07-24T14:37:49;116.13;;;104.15;;
71423;SDS011;59240;51.370;-0.486;2022-07-24T14:40:16;182.52;;;163.60;;
71423;SDS011;59240;51.370;-0.486;2022-07-24T14:42:42;189.43;;;170.65;;
71423;SDS011;59240;51.370;-0.486;2022-07-24T14:45:09;202.10;;;180.93;;
71423;SDS011;59240;51.370;-0.486;2022-07-24T14:47:36;207.13;;;185.18;;
71423;SDS011;59240;51.370;-0.486;2022-07-24T14:50:05;193.13;;;172.50;;
71423;SDS011;59240;51.370;-0.486;2022-07-24T14:52:34;171.10;;;152.30;;
71423;SDS011;59240;51.370;-0.486;2022-07-24T14:55:02;161.20;;;144.57;;
71423;SDS011;59240;51.370;-0.486;2022-07-24T14:57:29;139.43;;;124.50;;
71423;SDS011;59240;51.370;-0.486;2022-07-24T14:59:56;96.35;;;86.03;;
71423;SDS011;59240;51.370;-0.486;2022-07-24T15:02:23;109.60;;;98.05;;
71423;SDS011;59240;51.370;-0.486;2022-07-24T15:04:50;126.65;;;113.05;;
71423;SDS011;59240;51.370;-0.486;2022-07-24T15:07:17;138.02;;;123.90;;
71423;SDS011;59240;51.370;-0.486;2022-07-24T15:09:44;146.27;;;130.80;;